createdAt,value
2018-07-01T12:27:26.405Z,27.50
2018-07-01T12:29:56.422Z,27.50
2018-07-01T12:32:25.077Z,28.00
2018-07-01T12:34:57.689Z,28.60
2018-07-01T12:37:26.471Z,29.10
2018-07-01T12:39:55.685Z,29.60
2018-07-01T12:42:27.451Z,30.00
2018-07-01T12:44:56.176Z,30.20
2018-07-01T12:47:26.329Z,30.40
2018-07-01T12:49:56.277Z,30.50
2018-07-01T12:52:26.822Z,30.50
2018-07-01T12:54:57.916Z,30.70
2018-07-01T12:57:28.023Z,30.80
2018-07-01T12:59:57.167Z,30.80
2018-07-01T13:02:34.807Z,30.90
2018-07-01T13:05:06.826Z,30.80
2018-07-01T13:07:36.846Z,30.70
2018-07-01T13:10:06.504Z,30.50
2018-07-01T13:12:40.152Z,30.40
2018-07-01T13:15:15.264Z,30.50
2018-07-01T13:17:44.550Z,30.70
2018-07-01T13:20:17.595Z,30.90
2018-07-01T13:22:46.774Z,30.90
2018-07-01T13:25:23.603Z,31.00
2018-07-01T13:27:56.573Z,31.00
2018-07-01T13:32:57.285Z,30.80
2018-07-01T13:35:27.402Z,30.80
2018-07-01T13:37:57.554Z,30.80
2018-07-01T13:40:27.582Z,30.90
2018-07-01T13:42:56.643Z,31.00
2018-07-01T13:45:26.861Z,31.00
2018-07-01T13:47:56.208Z,31.00
2018-07-01T13:50:26.891Z,31.10
2018-07-01T13:52:56.317Z,31.10
2018-07-01T13:57:57.448Z,31.20
2018-07-01T14:00:26.615Z,31.30
2018-07-01T14:02:55.793Z,31.50
2018-07-01T14:05:29.546Z,31.50
2018-07-01T14:08:07.197Z,31.50
2018-07-01T14:10:37.272Z,31.40
2018-07-01T14:13:06.568Z,31.40
2018-07-01T14:15:37.854Z,31.30
2018-07-01T14:18:07.040Z,31.40
2018-07-01T14:25:46.431Z,31.40
2018-07-01T14:28:17.292Z,31.40
2018-07-01T14:30:51.013Z,31.30
2018-07-01T14:35:50.858Z,31.00
2018-07-01T14:38:20.420Z,31.00
2018-07-01T14:40:51.896Z,31.10
2018-07-01T14:43:21.041Z,31.20
2018-07-01T14:45:50.168Z,31.40
2018-07-01T14:48:19.172Z,31.50
2018-07-01T14:50:51.880Z,31.60
2018-07-01T14:53:23.731Z,31.50
2018-07-01T14:55:54.385Z,31.40
2018-07-01T14:58:24.200Z,31.20
2018-07-01T15:00:53.068Z,31.00
2018-07-01T15:03:21.907Z,30.90
2018-07-01T15:05:50.768Z,30.90
2018-07-01T15:08:21.393Z,30.90
2018-07-01T15:10:51.781Z,31.00
2018-07-01T15:13:21.965Z,31.10
2018-07-01T15:15:50.958Z,31.00
2018-07-01T15:18:20.000Z,30.90
2018-07-01T15:20:48.664Z,31.00
2018-07-01T15:23:17.396Z,31.10
2018-07-01T15:28:26.005Z,31.10
2018-07-01T15:30:54.780Z,31.10
2018-07-01T15:33:24.668Z,31.00
2018-07-01T15:35:54.591Z,31.00
2018-07-01T15:38:24.488Z,31.00
2018-07-01T15:43:30.836Z,31.00
2018-07-01T15:46:02.400Z,31.00
2018-07-01T15:48:31.485Z,31.00
2018-07-01T15:51:01.269Z,31.00
2018-07-01T15:53:29.950Z,31.00
2018-07-01T15:56:08.449Z,31.00
2018-07-01T15:58:51.167Z,31.00
2018-07-01T16:01:31.865Z,31.00
2018-07-01T16:06:37.277Z,30.90
2018-07-01T16:09:09.517Z,30.90
2018-07-01T16:11:56.181Z,31.00
2018-07-01T16:14:24.775Z,31.00
2018-07-01T16:16:59.155Z,31.00
2018-07-01T16:19:40.842Z,30.80
2018-07-01T16:26:11.647Z,30.80
2018-07-01T16:28:46.024Z,30.70
2018-07-01T16:31:16.082Z,30.60
2018-07-01T16:33:45.506Z,30.60
2018-07-01T16:36:20.690Z,30.60
2018-07-01T16:38:49.607Z,30.60
2018-07-01T16:41:18.756Z,30.60
2018-07-01T16:43:47.852Z,30.40
2018-07-01T16:46:16.707Z,30.30
2018-07-01T16:48:45.636Z,30.10
2018-07-01T16:51:14.243Z,30.20
2018-07-01T16:53:46.909Z,30.30
2018-07-01T16:56:15.737Z,30.40
2018-07-01T16:58:46.493Z,30.50
2018-07-01T17:01:16.619Z,30.50
2018-07-01T17:03:45.378Z,30.50
2018-07-01T17:06:14.877Z,30.50
2018-07-01T17:08:43.447Z,30.50
2018-07-01T17:11:12.150Z,30.40
2018-07-01T17:13:40.958Z,30.30
2018-07-01T17:16:09.795Z,30.10
2018-07-01T17:18:39.568Z,30.10
2018-07-01T17:21:08.653Z,30.00
2018-07-01T17:23:46.602Z,30.00
2018-07-01T17:26:15.308Z,30.00
2018-07-01T17:28:44.991Z,30.00
2018-07-01T17:31:22.665Z,30.10
2018-07-01T17:33:51.791Z,30.10
2018-07-01T17:36:23.777Z,30.10
2018-07-01T17:38:52.628Z,30.00
2018-07-01T17:41:32.097Z,30.00
2018-07-01T17:46:29.119Z,30.10
2018-07-01T17:48:58.756Z,30.10
2018-07-01T17:51:27.500Z,30.30
2018-07-01T17:53:58.129Z,30.40
2018-07-01T17:56:27.799Z,30.40
2018-07-01T18:01:25.839Z,30.60
2018-07-01T18:03:55.935Z,30.60
2018-07-01T18:06:35.361Z,30.60
2018-07-01T18:09:20.608Z,30.60
2018-07-01T18:12:00.044Z,30.60
2018-07-01T18:14:30.070Z,30.70
2018-07-01T18:16:59.312Z,30.80
2018-07-01T18:19:29.066Z,30.80
2018-07-01T18:22:27.957Z,30.60
2018-07-01T18:24:48.921Z,30.50
2018-07-01T18:26:56.396Z,30.40
2018-07-01T18:29:25.502Z,30.40
2018-07-01T18:31:56.599Z,30.40
2018-07-01T18:34:28.131Z,30.40
2018-07-01T18:41:56.774Z,30.40
2018-07-01T18:44:32.681Z,30.30
2018-07-01T18:47:11.256Z,30.20
2018-07-01T18:49:40.721Z,30.10
2018-07-01T18:52:18.800Z,29.90
2018-07-01T18:54:47.591Z,29.80
2018-07-01T18:57:35.149Z,29.70
